sensor_id;sensor_type;location;lat;lon;timestamp;pressure;altitude;pressure_sealevel;temperature;humidity
66689;BME280;53587;59.318;18.084;2023-04-30T00:01:48;100709.97;;;19.65;79.70
66689;BME280;53587;59.318;18.084;2023-04-30T00:04:13;100709.44;;;19.30;79.99
66689;BME280;53587;59.318;18.084;2023-04-30T00:06:38;100715.03;;;18.87;78.61
66689;BME280;53587;59.318;18.084;2023-04-30T00:09:04;100720.50;;;18.92;82.61
66689;BME280;53587;59.318;18.084;2023-04-30T00:11:29;100723.75;;;19.32;86.70
66689;BME280;53587;59.318;18.084;2023-04-30T00:13:55;100739.84;;;19.63;88.65
66689;BME280;53587;59.318;18.084;2023-04-30T00:16:21;100744.75;;;19.85;88.88
66689;BME280;53587;59.318;18.084;2023-04-30T00:18:46;100732.00;;;20.03;87.20
66689;BME280;53587;59.318;18.084;2023-04-30T00:21:12;100745.16;;;20.25;86.70
66689;BME280;53587;59.318;18.084;2023-04-30T00:23:37;100751.75;;;20.43;85.55
66689;BME280;53587;59.318;18.084;2023-04-30T00:26:02;100749.03;;;20.10;82.59
66689;BME280;53587;59.318;18.084;2023-04-30T00:28:27;100747.41;;;19.57;79.93
66689;BME280;53587;59.318;18.084;2023-04-30T00:30:53;100757.97;;;18.98;78.71
66689;BME280;53587;59.318;18.084;2023-04-30T00:33:18;100752.22;;;18.70;79.46
66689;BME280;53587;59.318;18.084;2023-04-30T00:35:44;100746.28;;;18.82;83.68
66689;BME280;53587;59.318;18.084;2023-04-30T00:38:09;100761.19;;;19.24;86.63
66689;BME280;53587;59.318;18.084;2023-04-30T00:40:35;100757.22;;;19.50;86.94
66689;BME280;53587;59.318;18.084;2023-04-30T00:43:01;100759.63;;;19.70;85.44
66689;BME280;53587;59.318;18.084;2023-04-30T00:45:27;100762.72;;;19.88;86.93
66689;BME280;53587;59.318;18.084;2023-04-30T00:47:52;100752.59;;;19.97;85.51
66689;BME280;53587;59.318;18.084;2023-04-30T00:50:17;100773.25;;;20.19;86.76
66689;BME280;53587;59.318;18.084;2023-04-30T00:52:43;100775.50;;;20.44;86.44
66689;BME280;53587;59.318;18.084;2023-04-30T00:55:10;100768.91;;;20.13;80.67
66689;BME280;53587;59.318;18.084;2023-04-30T00:57:37;100781.72;;;19.56;79.79
66689;BME280;53587;59.318;18.084;2023-04-30T01:00:03;100772.28;;;19.00;78.64
66689;BME280;53587;59.318;18.084;2023-04-30T01:02:29;100786.81;;;18.62;78.39
66689;BME280;53587;59.318;18.084;2023-04-30T01:04:55;100793.44;;;18.86;83.75
66689;BME280;53587;59.318;18.084;2023-04-30T01:07:21;100772.75;;;19.07;86.47
66689;BME280;53587;59.318;18.084;2023-04-30T01:09:47;100761.19;;;19.24;87.58
66689;BME280;53587;59.318;18.084;2023-04-30T01:12:38;100778.91;;;19.75;85.37
66689;BME280;53587;59.318;18.084;2023-04-30T01:15:28;100780.66;;;19.90;85.67
66689;BME280;53587;59.318;18.084;2023-04-30T01:18:03;100791.88;;;20.13;88.03
66689;BME280;53587;59.318;18.084;2023-04-30T01:20:31;100786.44;;;20.22;89.14
66689;BME280;53587;59.318;18.084;2023-04-30T01:23:30;100798.06;;;20.52;86.21
66689;BME280;53587;59.318;18.084;2023-04-30T01:26:10;100805.03;;;20.35;80.36
66689;BME280;53587;59.318;18.084;2023-04-30T01:28:38;100807.69;;;19.55;78.75
66689;BME280;53587;59.318;18.084;2023-04-30T01:31:13;100799.31;;;19.03;77.73
66689;BME280;53587;59.318;18.084;2023-04-30T01:33:39;100809.19;;;18.61;78.19
66689;BME280;53587;59.318;18.084;2023-04-30T01:39:07;100810.03;;;19.29;86.38
66689;BME280;53587;59.318;18.084;2023-04-30T01:42:01;100808.22;;;19.57;85.33
66689;BME280;53587;59.318;18.084;2023-04-30T01:44:45;100811.59;;;19.73;85.93
66689;BME280;53587;59.318;18.084;2023-04-30T01:52:56;100814.00;;;20.27;85.08
66689;BME280;53587;59.318;18.084;2023-04-30T01:55:37;100816.94;;;20.50;81.84
66689;BME280;53587;59.318;18.084;2023-04-30T01:58:08;100827.88;;;19.94;77.94
66689;BME280;53587;59.318;18.084;2023-04-30T02:00:34;100821.00;;;19.15;77.59
66689;BME280;53587;59.318;18.084;2023-04-30T02:02:59;100812.22;;;18.83;77.38
66689;BME280;53587;59.318;18.084;2023-04-30T02:05:25;100815.47;;;18.42;79.48
66689;BME280;53587;59.318;18.084;2023-04-30T02:07:51;100829.84;;;18.93;85.07
66689;BME280;53587;59.318;18.084;2023-04-30T02:10:19;100825.16;;;19.12;85.94
66689;BME280;53587;59.318;18.084;2023-04-30T02:12:45;100832.06;;;19.34;86.83
66689;BME280;53587;59.318;18.084;2023-04-30T02:15:11;100837.28;;;19.55;86.92
66689;BME280;53587;59.318;18.084;2023-04-30T02:17:36;100820.84;;;19.63;85.03
66689;BME280;53587;59.318;18.084;2023-04-30T02:20:02;100823.34;;;19.84;85.30
66689;BME280;53587;59.318;18.084;2023-04-30T02:22:28;100828.28;;;20.01;84.78
66689;BME280;53587;59.318;18.084;2023-04-30T02:24:53;100815.94;;;20.13;82.45
66689;BME280;53587;59.318;18.084;2023-04-30T02:27:22;100840.81;;;20.46;84.93
66689;BME280;53587;59.318;18.084;2023-04-30T02:29:48;100832.25;;;20.14;80.88
66689;BME280;53587;59.318;18.084;2023-04-30T02:32:13;100828.63;;;19.42;78.78
66689;BME280;53587;59.318;18.084;2023-04-30T02:34:39;100844.84;;;19.06;78.10
66689;BME280;53587;59.318;18.084;2023-04-30T02:37:05;100840.66;;;18.60;78.70
66689;BME280;53587;59.318;18.084;2023-04-30T02:39:31;100837.47;;;18.72;83.14
66689;BME280;53587;59.318;18.084;2023-04-30T02:41:56;100836.78;;;19.09;86.57
66689;BME280;53587;59.318;18.084;2023-04-30T02:44:21;100835.03;;;19.38;88.16
66689;BME280;53587;59.318;18.084;2023-04-30T02:46:47;100851.72;;;19.71;86.75
66689;BME280;53587;59.318;18.084;2023-04-30T02:49:12;100844.84;;;19.87;85.32
66689;BME280;53587;59.318;18.084;2023-04-30T02:51:37;100843.28;;;20.00;85.03
66689;BME280;53587;59.318;18.084;2023-04-30T02:54:03;100843.09;;;20.10;87.16
66689;BME280;53587;59.318;18.084;2023-04-30T02:56:28;100847.84;;;20.24;88.16
66689;BME280;53587;59.318;18.084;2023-04-30T02:58:53;100849.81;;;20.37;85.58
66689;BME280;53587;59.318;18.084;2023-04-30T03:01:19;100846.78;;;20.20;80.46
66689;BME280;53587;59.318;18.084;2023-04-30T03:03:44;100853.81;;;19.60;78.91
66689;BME280;53587;59.318;18.084;2023-04-30T03:06:09;100865.75;;;19.12;77.25
66689;BME280;53587;59.318;18.084;2023-04-30T03:08:35;100853.75;;;18.73;77.80
66689;BME280;53587;59.318;18.084;2023-04-30T03:11:00;100862.97;;;18.88;83.47
66689;BME280;53587;59.318;18.084;2023-04-30T03:13:25;100878.16;;;19.14;85.99
66689;BME280;53587;59.318;18.084;2023-04-30T03:16:02;100877.63;;;19.56;85.75
66689;BME280;53587;59.318;18.084;2023-04-30T03:18:31;100897.13;;;19.65;84.70
66689;BME280;53587;59.318;18.084;2023-04-30T03:20:56;100883.97;;;19.75;84.31
66689;BME280;53587;59.318;18.084;2023-04-30T03:23:22;100887.06;;;19.93;87.13
66689;BME280;53587;59.318;18.084;2023-04-30T03:25:48;100888.88;;;20.03;87.35
66689;BME280;53587;59.318;18.084;2023-04-30T03:28:14;100892.97;;;20.05;85.71
66689;BME280;53587;59.318;18.084;2023-04-30T03:30:39;100888.38;;;20.15;83.24
66689;BME280;53587;59.318;18.084;2023-04-30T03:33:05;100889.84;;;20.26;84.43
66689;BME280;53587;59.318;18.084;2023-04-30T03:35:31;100889.06;;;20.39;82.33
66689;BME280;53587;59.318;18.084;2023-04-30T03:37:56;100899.91;;;19.84;80.15
66689;BME280;53587;59.318;18.084;2023-04-30T03:40:22;100892.69;;;19.25;78.30
66689;BME280;53587;59.318;18.084;2023-04-30T03:42:47;100908.50;;;18.66;77.53
66689;BME280;53587;59.318;18.084;2023-04-30T03:45:13;100910.66;;;18.40;79.39
66689;BME280;53587;59.318;18.084;2023-04-30T03:47:38;100906.69;;;18.80;84.77
66689;BME280;53587;59.318;18.084;2023-04-30T03:50:04;100911.38;;;19.09;87.08
66689;BME280;53587;59.318;18.084;2023-04-30T03:52:29;100915.56;;;19.31;86.45
66689;BME280;53587;59.318;18.084;2023-04-30T03:54:55;100925.84;;;19.44;84.78
66689;BME280;53587;59.318;18.084;2023-04-30T03:57:21;100932.22;;;19.64;84.54
66689;BME280;53587;59.318;18.084;2023-04-30T03:59:46;100915.56;;;19.69;87.32
66689;BME280;53587;59.318;18.084;2023-04-30T04:02:12;100914.34;;;19.81;88.27
66689;BME280;53587;59.318;18.084;2023-04-30T04:04:38;100905.31;;;19.94;84.90
66689;BME280;53587;59.318;18.084;2023-04-30T04:07:03;100907.25;;;20.13;83.87
66689;BME280;53587;59.318;18.084;2023-04-30T04:09:31;100917.50;;;20.26;84.33
66689;BME280;53587;59.318;18.084;2023-04-30T04:11:57;100917.88;;;20.38;84.11
66689;BME280;53587;59.318;18.084;2023-04-30T04:14:22;100916.75;;;20.39;85.72
66689;BME280;53587;59.318;18.084;2023-04-30T04:16:48;100909.16;;;20.31;80.52
66689;BME280;53587;59.318;18.084;2023-04-30T04:19:13;100929.81;;;19.82;78.32
66689;BME280;53587;59.318;18.084;2023-04-30T04:21:38;100942.72;;;19.24;77.58
66689;BME280;53587;59.318;18.084;2023-04-30T04:24:04;100936.84;;;18.72;77.53
66689;BME280;53587;59.318;18.084;2023-04-30T04:26:36;100944.94;;;18.63;81.38
66689;BME280;53587;59.318;18.084;2023-04-30T04:29:03;100941.91;;;18.94;85.02
66689;BME280;53587;59.318;18.084;2023-04-30T04:31:29;100952.69;;;19.20;87.49
66689;BME280;53587;59.318;18.084;2023-04-30T04:33:57;100954.09;;;19.41;86.86
66689;BME280;53587;59.318;18.084;2023-04-30T04:36:27;100961.59;;;19.60;84.59
66689;BME280;53587;59.318;18.084;2023-04-30T04:38:53;100931.19;;;19.60;83.51
66689;BME280;53587;59.318;18.084;2023-04-30T04:41:18;100962.94;;;19.87;85.57
66689;BME280;53587;59.318;18.084;2023-04-30T04:43:45;100952.63;;;19.92;87.46
66689;BME280;53587;59.318;18.084;2023-04-30T04:46:10;100939.53;;;19.98;85.00
66689;BME280;53587;59.318;18.084;2023-04-30T04:48:35;100952.16;;;20.23;82.63
66689;BME280;53587;59.318;18.084;2023-04-30T04:51:01;100923.84;;;20.13;83.67
66689;BME280;53587;59.318;18.084;2023-04-30T04:53:26;100956.03;;;20.41;81.29
66689;BME280;53587;59.318;18.084;2023-04-30T04:55:51;100947.47;;;19.61;79.29
66689;BME280;53587;59.318;18.084;2023-04-30T04:58:17;100950.66;;;19.01;78.47
66689;BME280;53587;59.318;18.084;2023-04-30T05:00:43;100968.59;;;18.74;77.71
66689;BME280;53587;59.318;18.084;2023-04-30T05:03:08;100969.16;;;18.37;79.43
66689;BME280;53587;59.318;18.084;2023-04-30T05:05:34;100975.75;;;18.75;84.15
66689;BME280;53587;59.318;18.084;2023-04-30T05:07:59;100962.38;;;18.93;87.03
66689;BME280;53587;59.318;18.084;2023-04-30T05:10:25;100980.91;;;19.17;85.37
66689;BME280;53587;59.318;18.084;2023-04-30T05:12:50;100988.13;;;19.61;85.15
66689;BME280;53587;59.318;18.084;2023-04-30T05:15:15;100974.97;;;19.96;84.25
66689;BME280;53587;59.318;18.084;2023-04-30T05:17:41;100971.66;;;20.32;81.58
66689;BME280;53587;59.318;18.084;2023-04-30T05:20:07;100980.88;;;20.08;79.00
66689;BME280;53587;59.318;18.084;2023-04-30T05:22:32;100983.94;;;19.63;79.10
66689;BME280;53587;59.318;18.084;2023-04-30T05:24:58;100996.53;;;19.51;79.68
66689;BME280;53587;59.318;18.084;2023-04-30T05:27:23;101004.31;;;19.49;80.37
66689;BME280;53587;59.318;18.084;2023-04-30T05:29:49;100993.06;;;20.07;85.99
66689;BME280;53587;59.318;18.084;2023-04-30T05:32:14;100992.28;;;20.59;88.48
66689;BME280;53587;59.318;18.084;2023-04-30T05:34:39;101005.97;;;20.50;82.07
66689;BME280;53587;59.318;18.084;2023-04-30T05:37:05;101001.72;;;20.20;79.12
66689;BME280;53587;59.318;18.084;2023-04-30T05:39:30;101009.06;;;20.10;78.30
66689;BME280;53587;59.318;18.084;2023-04-30T05:41:55;101023.31;;;19.99;80.08
66689;BME280;53587;59.318;18.084;2023-04-30T05:44:21;101018.63;;;20.56;86.91
66689;BME280;53587;59.318;18.084;2023-04-30T05:46:46;101027.94;;;20.60;82.37
66689;BME280;53587;59.318;18.084;2023-04-30T05:49:12;101029.84;;;20.27;79.65
66689;BME280;53587;59.318;18.084;2023-04-30T05:51:37;101032.38;;;20.23;79.92
66689;BME280;53587;59.318;18.084;2023-04-30T05:54:02;101031.78;;;20.07;80.76
66689;BME280;53587;59.318;18.084;2023-04-30T05:56:28;101036.56;;;20.59;86.37
66689;BME280;53587;59.318;18.084;2023-04-30T05:58:53;101029.09;;;20.59;82.44
66689;BME280;53587;59.318;18.084;2023-04-30T06:01:19;101044.91;;;20.40;78.80
66689;BME280;53587;59.318;18.084;2023-04-30T06:03:45;101028.81;;;20.23;80.25
66689;BME280;53587;59.318;18.084;2023-04-30T06:06:11;101029.13;;;20.21;81.64
66689;BME280;53587;59.318;18.084;2023-04-30T06:08:36;101040.03;;;20.51;85.29
66689;BME280;53587;59.318;18.084;2023-04-30T06:11:02;101030.88;;;20.69;82.28
66689;BME280;53587;59.318;18.084;2023-04-30T06:13:30;101047.63;;;20.59;79.55
66689;BME280;53587;59.318;18.084;2023-04-30T06:15:56;101055.34;;;20.43;81.24
66689;BME280;53587;59.318;18.084;2023-04-30T06:18:21;101053.28;;;20.35;81.36
66689;BME280;53587;59.318;18.084;2023-04-30T06:20:47;101051.38;;;20.49;85.26
66689;BME280;53587;59.318;18.084;2023-04-30T06:23:12;101053.69;;;20.80;83.01
66689;BME280;53587;59.318;18.084;2023-04-30T06:25:37;101062.81;;;20.62;80.18
66689;BME280;53587;59.318;18.084;2023-04-30T06:28:03;101069.34;;;20.52;81.60
66689;BME280;53587;59.318;18.084;2023-04-30T06:30:30;101074.88;;;20.52;82.24
66689;BME280;53587;59.318;18.084;2023-04-30T06:32:56;101053.94;;;20.46;83.21
66689;BME280;53587;59.318;18.084;2023-04-30T06:35:21;101066.47;;;20.95;85.79
66689;BME280;53587;59.318;18.084;2023-04-30T06:37:46;101074.88;;;20.90;83.15
66689;BME280;53587;59.318;18.084;2023-04-30T06:40:12;101062.81;;;20.62;80.57
66689;BME280;53587;59.318;18.084;2023-04-30T06:42:37;101071.59;;;20.50;81.50
66689;BME280;53587;59.318;18.084;2023-04-30T06:45:03;101084.91;;;20.48;80.80
66689;BME280;53587;59.318;18.084;2023-04-30T06:47:31;101083.56;;;20.45;82.57
66689;BME280;53587;59.318;18.084;2023-04-30T06:49:59;101071.22;;;21.08;88.57
66689;BME280;53587;59.318;18.084;2023-04-30T06:52:24;101085.34;;;20.93;82.23
66689;BME280;53587;59.318;18.084;2023-04-30T06:54:50;101078.84;;;20.65;80.35
66689;BME280;53587;59.318;18.084;2023-04-30T06:57:16;101084.47;;;20.59;80.82
66689;BME280;53587;59.318;18.084;2023-04-30T06:59:41;101089.03;;;20.50;81.66
66689;BME280;53587;59.318;18.084;2023-04-30T07:02:06;101094.19;;;20.57;81.21
66689;BME280;53587;59.318;18.084;2023-04-30T07:04:32;101094.94;;;20.43;80.40
66689;BME280;53587;59.318;18.084;2023-04-30T07:06:57;101105.06;;;20.53;85.15
66689;BME280;53587;59.318;18.084;2023-04-30T07:09:26;101088.94;;;20.94;85.71
66689;BME280;53587;59.318;18.084;2023-04-30T07:11:51;101098.84;;;20.81;80.91
66689;BME280;53587;59.318;18.084;2023-04-30T07:14:17;101101.81;;;20.65;81.77
66689;BME280;53587;59.318;18.084;2023-04-30T07:16:42;101106.91;;;20.58;82.49
66689;BME280;53587;59.318;18.084;2023-04-30T07:19:07;101128.25;;;20.57;82.29
66689;BME280;53587;59.318;18.084;2023-04-30T07:21:33;101120.16;;;20.99;86.61
66689;BME280;53587;59.318;18.084;2023-04-30T07:23:58;101106.53;;;21.03;82.52
66689;BME280;53587;59.318;18.084;2023-04-30T07:26:23;101126.09;;;20.73;80.77
66689;BME280;53587;59.318;18.084;2023-04-30T07:28:50;101121.28;;;20.60;81.92
66689;BME280;53587;59.318;18.084;2023-04-30T07:31:16;101114.25;;;20.49;82.10
66689;BME280;53587;59.318;18.084;2023-04-30T07:33:41;101115.38;;;20.48;80.93
66689;BME280;53587;59.318;18.084;2023-04-30T07:36:06;101130.94;;;20.43;81.83
66689;BME280;53587;59.318;18.084;2023-04-30T07:38:32;101140.44;;;20.37;81.70
66689;BME280;53587;59.318;18.084;2023-04-30T07:40:57;101132.22;;;20.27;81.17
66689;BME280;53587;59.318;18.084;2023-04-30T07:43:22;101133.47;;;20.40;84.08
66689;BME280;53587;59.318;18.084;2023-04-30T07:45:48;101140.91;;;21.02;87.20
66689;BME280;53587;59.318;18.084;2023-04-30T07:48:15;101142.53;;;20.84;82.44
66689;BME280;53587;59.318;18.084;2023-04-30T07:50:41;101149.19;;;20.64;81.55
66689;BME280;53587;59.318;18.084;2023-04-30T07:53:06;101151.19;;;20.58;81.84
66689;BME280;53587;59.318;18.084;2023-04-30T07:55:33;101160.69;;;20.52;82.49
66689;BME280;53587;59.318;18.084;2023-04-30T07:57:59;101158.09;;;21.18;87.99
66689;BME280;53587;59.318;18.084;2023-04-30T08:00:24;101175.88;;;20.98;81.97
66689;BME280;53587;59.318;18.084;2023-04-30T08:02:50;101165.91;;;20.78;80.55
66689;BME280;53587;59.318;18.084;2023-04-30T08:05:16;101168.03;;;20.62;81.89
66689;BME280;53587;59.318;18.084;2023-04-30T08:07:41;101178.44;;;20.51;82.47
66689;BME280;53587;59.318;18.084;2023-04-30T08:10:08;101200.81;;;20.54;81.69
66689;BME280;53587;59.318;18.084;2023-04-30T08:12:37;101186.44;;;20.52;83.02
66689;BME280;53587;59.318;18.084;2023-04-30T08:15:04;101180.78;;;20.38;81.06
66689;BME280;53587;59.318;18.084;2023-04-30T08:17:33;101182.41;;;20.64;86.33
66689;BME280;53587;59.318;18.084;2023-04-30T08:19:59;101200.88;;;21.12;86.93
66689;BME280;53587;59.318;18.084;2023-04-30T08:22:25;101188.59;;;20.80;82.36
66689;BME280;53587;59.318;18.084;2023-04-30T08:24:50;101206.44;;;20.68;81.78
66689;BME280;53587;59.318;18.084;2023-04-30T08:27:16;101213.06;;;20.72;81.17
66689;BME280;53587;59.318;18.084;2023-04-30T08:29:42;101191.59;;;20.40;81.56
66689;BME280;53587;59.318;18.084;2023-04-30T08:32:07;101231.09;;;20.46;81.50
66689;BME280;53587;59.318;18.084;2023-04-30T08:34:33;101205.84;;;20.28;82.85
66689;BME280;53587;59.318;18.084;2023-04-30T08:36:59;101219.03;;;20.36;82.69
66689;BME280;53587;59.318;18.084;2023-04-30T08:39:25;101213.09;;;20.91;87.35
66689;BME280;53587;59.318;18.084;2023-04-30T08:41:54;101210.31;;;20.91;82.85
66689;BME280;53587;59.318;18.084;2023-04-30T08:44:25;101234.41;;;20.72;81.68
66689;BME280;53587;59.318;18.084;2023-04-30T08:46:53;101252.41;;;20.69;81.85
66689;BME280;53587;59.318;18.084;2023-04-30T08:49:20;101246.75;;;20.55;82.36
66689;BME280;53587;59.318;18.084;2023-04-30T08:51:45;101225.69;;;20.35;81.33
66689;BME280;53587;59.318;18.084;2023-04-30T08:54:12;101243.34;;;20.39;82.70
66689;BME280;53587;59.318;18.084;2023-04-30T08:56:41;101236.69;;;20.65;85.35
66689;BME280;53587;59.318;18.084;2023-04-30T08:59:06;101247.81;;;20.84;84.36
66689;BME280;53587;59.318;18.084;2023-04-30T09:01:33;101256.72;;;21.00;85.23
66689;BME280;53587;59.318;18.084;2023-04-30T09:03:58;101272.31;;;21.15;85.04
66689;BME280;53587;59.318;18.084;2023-04-30T09:06:24;101257.03;;;21.17;85.27
66689;BME280;53587;59.318;18.084;2023-04-30T09:08:49;101266.47;;;21.35;85.04
66689;BME280;53587;59.318;18.084;2023-04-30T09:11:29;101271.31;;;21.63;83.89
66689;BME280;53587;59.318;18.084;2023-04-30T09:13:57;101277.09;;;21.47;84.03
66689;BME280;53587;59.318;18.084;2023-04-30T09:16:23;101290.66;;;21.49;84.99
66689;BME280;53587;59.318;18.084;2023-04-30T09:18:50;101274.78;;;21.35;85.19
66689;BME280;53587;59.318;18.084;2023-04-30T09:21:15;101295.16;;;21.45;83.43
66689;BME280;53587;59.318;18.084;2023-04-30T09:23:54;101277.53;;;21.54;83.02
66689;BME280;53587;59.318;18.084;2023-04-30T09:26:25;101271.34;;;21.44;83.80
66689;BME280;53587;59.318;18.084;2023-04-30T09:28:54;101274.38;;;21.42;81.72
66689;BME280;53587;59.318;18.084;2023-04-30T09:31:20;101273.88;;;21.21;84.21
66689;BME280;53587;59.318;18.084;2023-04-30T09:33:46;101262.72;;;21.26;82.45
66689;BME280;53587;59.318;18.084;2023-04-30T09:36:12;101257.63;;;21.14;83.77
66689;BME280;53587;59.318;18.084;2023-04-30T09:38:38;101273.13;;;21.34;82.63
66689;BME280;53587;59.318;18.084;2023-04-30T09:41:03;101270.28;;;21.20;82.55
66689;BME280;53587;59.318;18.084;2023-04-30T09:43:29;101307.44;;;21.38;83.34
66689;BME280;53587;59.318;18.084;2023-04-30T09:45:57;101298.38;;;21.33;81.45
66689;BME280;53587;59.318;18.084;2023-04-30T09:48:24;101303.16;;;21.27;82.96
66689;BME280;53587;59.318;18.084;2023-04-30T09:50:51;101293.41;;;21.30;83.61
66689;BME280;53587;59.318;18.084;2023-04-30T09:53:19;101304.22;;;21.50;84.81
66689;BME280;53587;59.318;18.084;2023-04-30T09:55:47;101312.56;;;21.69;85.50
66689;BME280;53587;59.318;18.084;2023-04-30T09:58:14;101302.56;;;21.68;82.48
66689;BME280;53587;59.318;18.084;2023-04-30T10:00:41;101299.13;;;21.58;83.59
66689;BME280;53587;59.318;18.084;2023-04-30T10:03:09;101309.25;;;21.67;82.37
66689;BME280;53587;59.318;18.084;2023-04-30T10:05:38;101309.34;;;21.62;82.34
66689;BME280;53587;59.318;18.084;2023-04-30T10:08:13;101318.09;;;21.69;83.15
66689;BME280;53587;59.318;18.084;2023-04-30T10:10:42;101306.66;;;21.52;83.22
66689;BME280;53587;59.318;18.084;2023-04-30T10:13:11;101305.44;;;21.63;83.84
66689;BME280;53587;59.318;18.084;2023-04-30T10:15:42;101334.75;;;21.69;81.80
66689;BME280;53587;59.318;18.084;2023-04-30T10:18:16;101288.41;;;21.51;83.87
66689;BME280;53587;59.318;18.084;2023-04-30T10:20:45;101303.63;;;21.53;82.55
66689;BME280;53587;59.318;18.084;2023-04-30T10:23:12;101294.78;;;21.51;82.74
66689;BME280;53587;59.318;18.084;2023-04-30T10:25:38;101274.84;;;21.30;83.35
66689;BME280;53587;59.318;18.084;2023-04-30T10:28:08;101305.72;;;21.43;82.07
66689;BME280;53587;59.318;18.084;2023-04-30T10:30:34;101269.91;;;21.27;83.32
66689;BME280;53587;59.318;18.084;2023-04-30T10:35:58;101322.56;;;21.65;82.79
66689;BME280;53587;59.318;18.084;2023-04-30T10:38:27;101335.94;;;21.63;83.50
66689;BME280;53587;59.318;18.084;2023-04-30T10:40:58;101324.22;;;21.47;81.76
66689;BME280;53587;59.318;18.084;2023-04-30T10:43:35;101334.38;;;21.57;82.74
66689;BME280;53587;59.318;18.084;2023-04-30T10:46:04;101306.47;;;21.29;82.02
66689;BME280;53587;59.318;18.084;2023-04-30T10:48:32;101329.03;;;21.42;83.02
66689;BME280;53587;59.318;18.084;2023-04-30T10:51:00;101335.31;;;21.47;82.73
66689;BME280;53587;59.318;18.084;2023-04-30T10:53:29;101327.38;;;21.40;82.74
66689;BME280;53587;59.318;18.084;2023-04-30T10:56:00;101329.47;;;21.49;83.04
66689;BME280;53587;59.318;18.084;2023-04-30T10:58:38;101327.97;;;21.37;82.49
66689;BME280;53587;59.318;18.084;2023-04-30T11:01:14;101333.81;;;21.55;83.61
66689;BME280;53587;59.318;18.084;2023-04-30T11:04:09;101344.69;;;21.51;82.69
66689;BME280;53587;59.318;18.084;2023-04-30T11:09:47;101345.16;;;21.59;81.89
66689;BME280;53587;59.318;18.084;2023-04-30T11:12:15;101341.31;;;21.35;83.21
66689;BME280;53587;59.318;18.084;2023-04-30T11:14:44;101348.34;;;21.47;82.53
66689;BME280;53587;59.318;18.084;2023-04-30T11:17:12;101329.19;;;21.31;82.90
66689;BME280;53587;59.318;18.084;2023-04-30T11:19:52;101351.66;;;21.49;83.27
66689;BME280;53587;59.318;18.084;2023-04-30T11:22:22;101360.41;;;21.37;82.81
66689;BME280;53587;59.318;18.084;2023-04-30T11:25:03;101354.72;;;21.47;83.12
66689;BME280;53587;59.318;18.084;2023-04-30T11:27:37;101370.44;;;21.57;81.40
66689;BME280;53587;59.318;18.084;2023-04-30T11:30:21;101369.06;;;21.54;82.81
66689;BME280;53587;59.318;18.084;2023-04-30T11:32:48;101379.16;;;21.45;81.24
66689;BME280;53587;59.318;18.084;2023-04-30T11:35:18;101374.09;;;21.28;82.56
66689;BME280;53587;59.318;18.084;2023-04-30T11:37:44;101392.31;;;21.34;83.50
66689;BME280;53587;59.318;18.084;2023-04-30T11:40:11;101400.06;;;21.37;81.73
66689;BME280;53587;59.318;18.084;2023-04-30T11:42:39;101403.56;;;21.43;83.56
66689;BME280;53587;59.318;18.084;2023-04-30T11:45:09;101419.19;;;21.58;82.29
66689;BME280;53587;59.318;18.084;2023-04-30T11:47:41;101409.50;;;21.55;82.82
66689;BME280;53587;59.318;18.084;2023-04-30T11:50:11;101405.44;;;21.48;83.29
66689;BME280;53587;59.318;18.084;2023-04-30T11:52:38;101406.56;;;21.47;82.66
66689;BME280;53587;59.318;18.084;2023-04-30T11:55:14;101410.88;;;21.58;83.26
66689;BME280;53587;59.318;18.084;2023-04-30T11:57:42;101393.16;;;21.54;82.18
66689;BME280;53587;59.318;18.084;2023-04-30T12:00:19;101396.72;;;21.60;83.03
66689;BME280;53587;59.318;18.084;2023-04-30T12:02:48;101392.63;;;21.52;82.25
66689;BME280;53587;59.318;18.084;2023-04-30T12:05:22;101402.69;;;21.48;84.34
66689;BME280;53587;59.318;18.084;2023-04-30T12:07:55;101391.69;;;21.62;84.88
66689;BME280;53587;59.318;18.084;2023-04-30T12:10:22;101395.38;;;21.57;82.76
66689;BME280;53587;59.318;18.084;2023-04-30T12:12:49;101394.22;;;21.58;83.37
66689;BME280;53587;59.318;18.084;2023-04-30T12:15:23;101380.81;;;21.65;83.92
66689;BME280;53587;59.318;18.084;2023-04-30T12:17:53;101391.78;;;21.76;85.38
66689;BME280;53587;59.318;18.084;2023-04-30T12:20:20;101387.94;;;21.71;82.39
66689;BME280;53587;59.318;18.084;2023-04-30T12:22:46;101381.16;;;21.39;81.15
66689;BME280;53587;59.318;18.084;2023-04-30T12:25:14;101382.06;;;21.54;84.55
66689;BME280;53587;59.318;18.084;2023-04-30T12:27:47;101382.47;;;21.66;80.43
66689;BME280;53587;59.318;18.084;2023-04-30T12:30:14;101386.44;;;21.60;82.93
66689;BME280;53587;59.318;18.084;2023-04-30T12:32:44;101393.56;;;21.66;82.54
66689;BME280;53587;59.318;18.084;2023-04-30T12:35:16;101381.69;;;21.42;80.53
66689;BME280;53587;59.318;18.084;2023-04-30T12:37:47;101381.75;;;21.36;81.41
66689;BME280;53587;59.318;18.084;2023-04-30T12:40:17;101400.16;;;21.27;81.98
66689;BME280;53587;59.318;18.084;2023-04-30T12:42:43;101382.56;;;21.18;84.73
66689;BME280;53587;59.318;18.084;2023-04-30T12:45:10;101409.00;;;21.53;85.32
66689;BME280;53587;59.318;18.084;2023-04-30T12:47:40;101399.31;;;21.51;82.10
66689;BME280;53587;59.318;18.084;2023-04-30T12:50:10;101400.50;;;21.45;83.12
66689;BME280;53587;59.318;18.084;2023-04-30T12:52:39;101400.94;;;21.52;85.49
66689;BME280;53587;59.318;18.084;2023-04-30T12:57:40;101404.34;;;21.49;81.91
66689;BME280;53587;59.318;18.084;2023-04-30T13:00:06;101403.63;;;21.38;82.70